sensor_id;sensor_type;location;lat;lon;timestamp;pressure;altitude;pressure_sealevel;temperature;humidity
37764;BME280;23602;51.084;7.090;2023-03-29T00:00:26;100402.25;;;4.03;100.00
37764;BME280;23602;51.084;7.090;2023-03-29T00:02:51;100393.78;;;4.08;100.00
37764;BME280;23602;51.084;7.090;2023-03-29T00:05:20;100367.66;;;4.03;100.00
37764;BME280;23602;51.084;7.090;2023-03-29T00:07:49;100355.69;;;4.07;100.00
37764;BME280;23602;51.084;7.090;2023-03-29T00:10:18;100372.19;;;4.11;100.00
37764;BME280;23602;51.084;7.090;2023-03-29T00:12:57;100380.34;;;4.09;100.00
37764;BME280;23602;51.084;7.090;2023-03-29T00:15:32;100376.00;;;4.08;100.00
37764;BME280;23602;51.084;7.090;2023-03-29T00:18:01;100367.34;;;4.06;100.00
37764;BME280;23602;51.084;7.090;2023-03-29T00:20:27;100374.00;;;4.10;100.00
37764;BME280;23602;51.084;7.090;2023-03-29T00:23:01;100369.69;;;4.09;100.00
37764;BME280;23602;51.084;7.090;2023-03-29T00:25:26;100356.88;;;4.13;100.00
37764;BME280;23602;51.084;7.090;2023-03-29T00:27:51;100363.53;;;4.09;100.00
37764;BME280;23602;51.084;7.090;2023-03-29T00:30:17;100363.69;;;4.07;100.00
37764;BME280;23602;51.084;7.090;2023-03-29T00:32:42;100361.03;;;4.07;100.00
37764;BME280;23602;51.084;7.090;2023-03-29T00:35:08;100349.22;;;4.10;100.00
37764;BME280;23602;51.084;7.090;2023-03-29T00:37:33;100352.72;;;4.10;100.00
37764;BME280;23602;51.084;7.090;2023-03-29T00:39:59;100352.41;;;4.13;100.00
37764;BME280;23602;51.084;7.090;2023-03-29T00:42:24;100356.22;;;4.11;100.00
37764;BME280;23602;51.084;7.090;2023-03-29T00:49:57;100329.13;;;4.15;100.00
37764;BME280;23602;51.084;7.090;2023-03-29T00:52:25;100328.81;;;4.18;100.00
37764;BME280;23602;51.084;7.090;2023-03-29T00:54:54;100321.66;;;4.19;100.00
37764;BME280;23602;51.084;7.090;2023-03-29T00:57:20;100317.50;;;4.16;100.00
37764;BME280;23602;51.084;7.090;2023-03-29T00:59:47;100323.31;;;4.12;100.00
37764;BME280;23602;51.084;7.090;2023-03-29T01:02:14;100308.53;;;4.09;100.00
37764;BME280;23602;51.084;7.090;2023-03-29T01:07:24;100311.19;;;4.17;100.00
37764;BME280;23602;51.084;7.090;2023-03-29T01:09:57;100301.03;;;4.13;100.00
37764;BME280;23602;51.084;7.090;2023-03-29T01:12:26;100300.91;;;4.14;100.00
37764;BME280;23602;51.084;7.090;2023-03-29T01:15:00;100306.69;;;4.18;100.00
37764;BME280;23602;51.084;7.090;2023-03-29T01:17:27;100310.38;;;4.17;100.00
37764;BME280;23602;51.084;7.090;2023-03-29T01:20:00;100306.22;;;4.14;100.00
37764;BME280;23602;51.084;7.090;2023-03-29T01:25:14;100305.19;;;4.15;100.00
37764;BME280;23602;51.084;7.090;2023-03-29T01:27:49;100305.19;;;4.15;100.00
37764;BME280;23602;51.084;7.090;2023-03-29T01:30:20;100299.72;;;4.17;100.00
37764;BME280;23602;51.084;7.090;2023-03-29T01:32:49;100289.09;;;4.17;100.00
37764;BME280;23602;51.084;7.090;2023-03-29T01:35:59;100290.75;;;4.18;100.00
37764;BME280;23602;51.084;7.090;2023-03-29T01:38:06;100288.41;;;4.23;100.00
37764;BME280;23602;51.084;7.090;2023-03-29T01:40:33;100283.41;;;4.20;100.00
37764;BME280;23602;51.084;7.090;2023-03-29T01:48:09;100284.25;;;4.20;100.00
37764;BME280;23602;51.084;7.090;2023-03-29T01:50:49;100272.78;;;4.20;100.00
37764;BME280;23602;51.084;7.090;2023-03-29T01:53:59;100278.09;;;4.20;100.00
37764;BME280;23602;51.084;7.090;2023-03-29T01:56:06;100284.25;;;4.20;100.00
37764;BME280;23602;51.084;7.090;2023-03-29T01:58:32;100286.78;;;4.22;100.00
37764;BME280;23602;51.084;7.090;2023-03-29T02:01:00;100281.09;;;4.25;100.00
37764;BME280;23602;51.084;7.090;2023-03-29T02:03:29;100270.97;;;4.28;100.00
37764;BME280;23602;51.084;7.090;2023-03-29T02:05:57;100259.66;;;4.26;100.00
37764;BME280;23602;51.084;7.090;2023-03-29T02:08:24;100267.31;;;4.29;100.00
37764;BME280;23602;51.084;7.090;2023-03-29T02:10:50;100268.13;;;4.30;100.00
37764;BME280;23602;51.084;7.090;2023-03-29T02:13:16;100253.31;;;4.27;100.00
37764;BME280;23602;51.084;7.090;2023-03-29T02:15:43;100254.69;;;4.23;100.00
37764;BME280;23602;51.084;7.090;2023-03-29T02:18:08;100259.50;;;4.28;100.00
37764;BME280;23602;51.084;7.090;2023-03-29T02:20:38;100242.03;;;4.25;100.00
37764;BME280;23602;51.084;7.090;2023-03-29T02:25:30;100229.91;;;4.39;100.00
37764;BME280;23602;51.084;7.090;2023-03-29T02:27:56;100226.22;;;4.40;100.00
37764;BME280;23602;51.084;7.090;2023-03-29T02:30:22;100234.06;;;4.41;100.00
37764;BME280;23602;51.084;7.090;2023-03-29T02:35:21;100234.19;;;4.40;100.00
37764;BME280;23602;51.084;7.090;2023-03-29T02:37:50;100245.69;;;4.32;100.00
37764;BME280;23602;51.084;7.090;2023-03-29T02:40:18;100229.38;;;4.35;100.00
37764;BME280;23602;51.084;7.090;2023-03-29T02:42:45;100220.09;;;4.39;100.00
37764;BME280;23602;51.084;7.090;2023-03-29T02:45:12;100217.06;;;4.42;100.00
37764;BME280;23602;51.084;7.090;2023-03-29T02:47:44;100215.09;;;4.44;100.00
37764;BME280;23602;51.084;7.090;2023-03-29T02:50:10;100223.56;;;4.40;100.00
37764;BME280;23602;51.084;7.090;2023-03-29T02:52:37;100220.41;;;4.44;100.00
37764;BME280;23602;51.084;7.090;2023-03-29T02:55:07;100227.38;;;4.45;100.00
37764;BME280;23602;51.084;7.090;2023-03-29T02:57:33;100223.09;;;4.44;100.00
37764;BME280;23602;51.084;7.090;2023-03-29T03:00:02;100238.03;;;4.45;100.00
37764;BME280;23602;51.084;7.090;2023-03-29T03:02:29;100237.88;;;4.47;100.00
37764;BME280;23602;51.084;7.090;2023-03-29T03:04:54;100240.69;;;4.45;100.00
37764;BME280;23602;51.084;7.090;2023-03-29T03:07:19;100239.03;;;4.44;100.00
37764;BME280;23602;51.084;7.090;2023-03-29T03:09:45;100232.69;;;4.45;100.00
37764;BME280;23602;51.084;7.090;2023-03-29T03:12:11;100240.53;;;4.47;100.00
37764;BME280;23602;51.084;7.090;2023-03-29T03:14:37;100240.34;;;4.48;100.00
37764;BME280;23602;51.084;7.090;2023-03-29T03:17:02;100245.69;;;4.48;100.00
37764;BME280;23602;51.084;7.090;2023-03-29T03:19:27;100212.75;;;4.50;100.00
37764;BME280;23602;51.084;7.090;2023-03-29T03:21:53;100199.78;;;4.55;100.00
37764;BME280;23602;51.084;7.090;2023-03-29T03:24:20;100187.63;;;4.60;100.00
37764;BME280;23602;51.084;7.090;2023-03-29T03:26:45;100176.94;;;4.68;100.00
37764;BME280;23602;51.084;7.090;2023-03-29T03:29:11;100174.28;;;4.68;100.00
37764;BME280;23602;51.084;7.090;2023-03-29T03:31:38;100178.59;;;4.69;100.00
37764;BME280;23602;51.084;7.090;2023-03-29T03:34:07;100191.09;;;4.69;100.00
37764;BME280;23602;51.084;7.090;2023-03-29T03:36:33;100188.09;;;4.72;100.00
37764;BME280;23602;51.084;7.090;2023-03-29T03:39:06;100190.09;;;4.70;100.00
37764;BME280;23602;51.084;7.090;2023-03-29T03:41:32;100189.06;;;4.71;100.00
37764;BME280;23602;51.084;7.090;2023-03-29T03:43:57;100180.28;;;4.70;100.00
37764;BME280;23602;51.084;7.090;2023-03-29T03:46:23;100191.41;;;4.66;100.00
37764;BME280;23602;51.084;7.090;2023-03-29T03:48:48;100186.41;;;4.71;100.00
37764;BME280;23602;51.084;7.090;2023-03-29T03:51:13;100177.09;;;4.75;100.00
37764;BME280;23602;51.084;7.090;2023-03-29T03:53:39;100180.75;;;4.74;100.00
37764;BME280;23602;51.084;7.090;2023-03-29T03:56:05;100182.09;;;4.78;100.00
37764;BME280;23602;51.084;7.090;2023-03-29T03:58:32;100174.25;;;4.76;100.00
37764;BME280;23602;51.084;7.090;2023-03-29T04:00:58;100179.44;;;4.78;100.00
37764;BME280;23602;51.084;7.090;2023-03-29T04:03:23;100176.75;;;4.78;100.00
37764;BME280;23602;51.084;7.090;2023-03-29T04:05:49;100176.75;;;4.78;100.00
37764;BME280;23602;51.084;7.090;2023-03-29T04:08:14;100181.06;;;4.79;100.00
37764;BME280;23602;51.084;7.090;2023-03-29T04:10:40;100190.22;;;4.76;100.00
37764;BME280;23602;51.084;7.090;2023-03-29T04:13:05;100196.06;;;4.80;100.00
37764;BME280;23602;51.084;7.090;2023-03-29T04:15:31;100196.06;;;4.80;100.00
37764;BME280;23602;51.084;7.090;2023-03-29T04:17:57;100195.03;;;4.81;100.00
37764;BME280;23602;51.084;7.090;2023-03-29T04:20:23;100191.56;;;4.80;100.00
37764;BME280;23602;51.084;7.090;2023-03-29T04:22:48;100192.03;;;4.84;100.00
37764;BME280;23602;51.084;7.090;2023-03-29T04:25:14;100197.34;;;4.84;100.00
37764;BME280;23602;51.084;7.090;2023-03-29T04:27:40;100198.00;;;4.86;100.00
37764;BME280;23602;51.084;7.090;2023-03-29T04:30:06;100192.34;;;4.89;100.00
37764;BME280;23602;51.084;7.090;2023-03-29T04:32:31;100194.34;;;4.87;100.00
37764;BME280;23602;51.084;7.090;2023-03-29T04:34:57;100204.50;;;4.91;100.00
37764;BME280;23602;51.084;7.090;2023-03-29T04:37:22;100205.31;;;4.92;100.00
37764;BME280;23602;51.084;7.090;2023-03-29T04:39:49;100206.16;;;4.92;100.00
37764;BME280;23602;51.084;7.090;2023-03-29T04:42:16;100214.81;;;4.94;100.00
37764;BME280;23602;51.084;7.090;2023-03-29T04:44:42;100215.44;;;4.96;100.00
37764;BME280;23602;51.084;7.090;2023-03-29T04:47:08;100208.63;;;4.94;100.00
37764;BME280;23602;51.084;7.090;2023-03-29T04:49:34;100209.81;;;4.91;100.00
37764;BME280;23602;51.084;7.090;2023-03-29T04:52:00;100200.00;;;4.92;100.00
37764;BME280;23602;51.084;7.090;2023-03-29T04:54:25;100199.81;;;4.93;100.00
37764;BME280;23602;51.084;7.090;2023-03-29T04:56:53;100198.50;;;4.89;100.00
37764;BME280;23602;51.084;7.090;2023-03-29T04:59:23;100195.84;;;4.89;100.00
37764;BME280;23602;51.084;7.090;2023-03-29T05:01:48;100201.16;;;4.89;100.00
37764;BME280;23602;51.084;7.090;2023-03-29T05:04:14;100212.34;;;4.85;100.00
37764;BME280;23602;51.084;7.090;2023-03-29T05:06:39;100210.16;;;4.88;100.00
37764;BME280;23602;51.084;7.090;2023-03-29T05:09:04;100210.00;;;4.90;100.00
37764;BME280;23602;51.084;7.090;2023-03-29T05:11:31;100213.50;;;4.90;100.00
37764;BME280;23602;51.084;7.090;2023-03-29T05:13:56;100211.63;;;4.91;100.00
37764;BME280;23602;51.084;7.090;2023-03-29T05:16:26;100209.47;;;4.94;100.00
37764;BME280;23602;51.084;7.090;2023-03-29T05:18:53;100212.97;;;4.95;100.00
37764;BME280;23602;51.084;7.090;2023-03-29T05:21:19;100213.97;;;4.94;100.00
37764;BME280;23602;51.084;7.090;2023-03-29T05:23:44;100210.31;;;4.95;100.00
37764;BME280;23602;51.084;7.090;2023-03-29T05:26:09;100212.78;;;4.96;100.00
37764;BME280;23602;51.084;7.090;2023-03-29T05:28:37;100208.63;;;4.94;100.00
37764;BME280;23602;51.084;7.090;2023-03-29T05:31:04;100206.63;;;4.96;100.00
37764;BME280;23602;51.084;7.090;2023-03-29T05:33:32;100202.13;;;4.96;100.00
37764;BME280;23602;51.084;7.090;2023-03-29T05:36:08;100208.00;;;4.92;100.00
37764;BME280;23602;51.084;7.090;2023-03-29T05:38:33;100201.66;;;4.93;100.00
37764;BME280;23602;51.084;7.090;2023-03-29T05:40:59;100205.81;;;4.95;100.00
37764;BME280;23602;51.084;7.090;2023-03-29T05:43:24;100208.63;;;5.02;100.00
37764;BME280;23602;51.084;7.090;2023-03-29T05:45:51;100209.91;;;5.06;100.00
37764;BME280;23602;51.084;7.090;2023-03-29T05:48:17;100197.28;;;5.08;100.00
37764;BME280;23602;51.084;7.090;2023-03-29T05:50:46;100204.91;;;5.11;100.00
37764;BME280;23602;51.084;7.090;2023-03-29T05:53:12;100199.09;;;5.07;100.00
37764;BME280;23602;51.084;7.090;2023-03-29T05:55:38;100203.56;;;5.15;100.00
37764;BME280;23602;51.084;7.090;2023-03-29T05:58:03;100201.22;;;5.20;100.00
37764;BME280;23602;51.084;7.090;2023-03-29T06:00:28;100196.19;;;5.25;100.00
37764;BME280;23602;51.084;7.090;2023-03-29T06:02:55;100190.88;;;5.25;100.00
37764;BME280;23602;51.084;7.090;2023-03-29T06:05:21;100193.19;;;5.28;100.00
37764;BME280;23602;51.084;7.090;2023-03-29T06:07:46;100191.81;;;5.32;100.00
37764;BME280;23602;51.084;7.090;2023-03-29T06:10:13;100191.13;;;5.38;100.00
37764;BME280;23602;51.084;7.090;2023-03-29T06:12:39;100182.78;;;5.41;100.00
37764;BME280;23602;51.084;7.090;2023-03-29T06:15:05;100182.78;;;5.41;100.00
37764;BME280;23602;51.084;7.090;2023-03-29T06:17:30;100185.47;;;5.41;100.00
37764;BME280;23602;51.084;7.090;2023-03-29T06:19:57;100189.97;;;5.41;100.00
37764;BME280;23602;51.084;7.090;2023-03-29T06:22:23;100187.06;;;5.50;100.00
37764;BME280;23602;51.084;7.090;2023-03-29T06:24:48;100184.50;;;5.57;100.00
37764;BME280;23602;51.084;7.090;2023-03-29T06:27:13;100181.69;;;5.58;100.00
37764;BME280;23602;51.084;7.090;2023-03-29T06:29:39;100174.34;;;5.60;100.00
37764;BME280;23602;51.084;7.090;2023-03-29T06:32:05;100177.50;;;5.64;100.00
37764;BME280;23602;51.084;7.090;2023-03-29T06:34:32;100169.31;;;5.65;100.00
37764;BME280;23602;51.084;7.090;2023-03-29T06:36:58;100180.59;;;5.67;100.00
37764;BME280;23602;51.084;7.090;2023-03-29T06:39:24;100159.19;;;5.61;100.00
37764;BME280;23602;51.084;7.090;2023-03-29T06:41:50;100163.31;;;5.63;100.00
37764;BME280;23602;51.084;7.090;2023-03-29T06:44:17;100164.97;;;5.64;100.00
37764;BME280;23602;51.084;7.090;2023-03-29T06:46:42;100163.63;;;5.68;100.00
37764;BME280;23602;51.084;7.090;2023-03-29T06:49:08;100173.94;;;5.71;100.00
37764;BME280;23602;51.084;7.090;2023-03-29T06:51:33;100159.22;;;5.75;100.00
37764;BME280;23602;51.084;7.090;2023-03-29T06:54:01;100151.06;;;5.77;100.00
37764;BME280;23602;51.084;7.090;2023-03-29T06:56:28;100160.88;;;5.85;100.00
37764;BME280;23602;51.084;7.090;2023-03-29T06:58:53;100157.81;;;5.88;100.00
37764;BME280;23602;51.084;7.090;2023-03-29T07:01:19;100168.06;;;5.99;100.00
37764;BME280;23602;51.084;7.090;2023-03-29T07:03:45;100164.69;;;6.05;100.00
37764;BME280;23602;51.084;7.090;2023-03-29T07:06:13;100166.19;;;6.07;100.00
37764;BME280;23602;51.084;7.090;2023-03-29T07:08:41;100160.16;;;6.05;100.00
37764;BME280;23602;51.084;7.090;2023-03-29T07:11:11;100153.19;;;6.04;100.00
37764;BME280;23602;51.084;7.090;2023-03-29T07:13:39;100137.84;;;6.06;100.00
37764;BME280;23602;51.084;7.090;2023-03-29T07:16:08;100127.94;;;6.15;100.00
37764;BME280;23602;51.084;7.090;2023-03-29T07:18:37;100137.84;;;6.21;100.00
37764;BME280;23602;51.084;7.090;2023-03-29T07:21:02;100133.00;;;6.24;100.00
37764;BME280;23602;51.084;7.090;2023-03-29T07:23:28;100122.78;;;6.28;100.00
37764;BME280;23602;51.084;7.090;2023-03-29T07:25:54;100126.03;;;6.38;100.00
37764;BME280;23602;51.084;7.090;2023-03-29T07:28:20;100146.63;;;6.44;100.00
37764;BME280;23602;51.084;7.090;2023-03-29T07:30:45;100128.31;;;6.41;100.00
37764;BME280;23602;51.084;7.090;2023-03-29T07:33:11;100125.75;;;6.48;100.00
37764;BME280;23602;51.084;7.090;2023-03-29T07:35:37;100133.00;;;6.54;100.00
37764;BME280;23602;51.084;7.090;2023-03-29T07:38:06;100127.88;;;6.52;100.00
37764;BME280;23602;51.084;7.090;2023-03-29T07:40:34;100122.81;;;6.57;100.00
37764;BME280;23602;51.084;7.090;2023-03-29T07:43:00;100099.25;;;6.61;100.00
37764;BME280;23602;51.084;7.090;2023-03-29T07:45:27;100099.41;;;6.59;100.00
37764;BME280;23602;51.084;7.090;2023-03-29T07:47:53;100100.88;;;6.62;100.00
37764;BME280;23602;51.084;7.090;2023-03-29T07:50:19;100089.28;;;6.69;100.00
37764;BME280;23602;51.084;7.090;2023-03-29T07:52:45;100099.13;;;6.83;100.00
37764;BME280;23602;51.084;7.090;2023-03-29T07:55:11;100093.22;;;6.88;100.00
37764;BME280;23602;51.084;7.090;2023-03-29T07:57:36;100098.63;;;6.94;100.00
37764;BME280;23602;51.084;7.090;2023-03-29T08:00:02;100103.22;;;7.00;100.00
37764;BME280;23602;51.084;7.090;2023-03-29T08:02:44;100111.25;;;7.00;100.00
37764;BME280;23602;51.084;7.090;2023-03-29T08:05:10;100118.25;;;7.02;100.00
37764;BME280;23602;51.084;7.090;2023-03-29T08:07:37;100130.09;;;7.14;100.00
37764;BME280;23602;51.084;7.090;2023-03-29T08:10:03;100124.00;;;7.20;100.00
37764;BME280;23602;51.084;7.090;2023-03-29T08:12:28;100134.56;;;7.28;100.00
37764;BME280;23602;51.084;7.090;2023-03-29T08:14:54;100121.41;;;7.26;100.00
37764;BME280;23602;51.084;7.090;2023-03-29T08:17:20;100108.88;;;7.27;100.00
37764;BME280;23602;51.084;7.090;2023-03-29T08:19:45;100106.47;;;7.32;100.00
37764;BME280;23602;51.084;7.090;2023-03-29T08:22:10;100110.47;;;7.42;100.00
37764;BME280;23602;51.084;7.090;2023-03-29T08:24:36;100100.59;;;7.43;100.00
37764;BME280;23602;51.084;7.090;2023-03-29T08:27:01;100104.44;;;7.55;100.00
37764;BME280;23602;51.084;7.090;2023-03-29T08:29:27;100119.72;;;7.61;100.00
37764;BME280;23602;51.084;7.090;2023-03-29T08:31:53;100129.19;;;7.63;100.00
37764;BME280;23602;51.084;7.090;2023-03-29T08:34:20;100131.97;;;7.70;100.00
37764;BME280;23602;51.084;7.090;2023-03-29T08:36:46;100130.78;;;7.79;100.00
37764;BME280;23602;51.084;7.090;2023-03-29T08:39:12;100128.16;;;7.86;100.00
37764;BME280;23602;51.084;7.090;2023-03-29T08:44:12;100108.53;;;8.00;100.00
37764;BME280;23602;51.084;7.090;2023-03-29T08:46:54;100100.75;;;8.05;100.00
37764;BME280;23602;51.084;7.090;2023-03-29T08:49:23;100101.00;;;8.10;100.00
37764;BME280;23602;51.084;7.090;2023-03-29T08:51:54;100092.59;;;8.13;100.00
37764;BME280;23602;51.084;7.090;2023-03-29T08:54:23;100082.72;;;8.13;100.00
37764;BME280;23602;51.084;7.090;2023-03-29T08:56:53;100085.81;;;8.17;100.00
37764;BME280;23602;51.084;7.090;2023-03-29T08:59:23;100079.84;;;8.15;100.00
37764;BME280;23602;51.084;7.090;2023-03-29T09:01:50;100078.91;;;8.29;100.00
37764;BME280;23602;51.084;7.090;2023-03-29T09:04:27;100081.50;;;8.44;100.00
37764;BME280;23602;51.084;7.090;2023-03-29T09:06:53;100082.97;;;8.53;100.00
37764;BME280;23602;51.084;7.090;2023-03-29T09:09:22;100072.66;;;8.50;100.00
37764;BME280;23602;51.084;7.090;2023-03-29T09:25:09;100084.34;;;8.76;100.00
37764;BME280;23602;51.084;7.090;2023-03-29T09:35:43;100076.25;;;9.17;100.00
37764;BME280;23602;51.084;7.090;2023-03-29T09:38:14;100079.38;;;9.27;100.00
37764;BME280;23602;51.084;7.090;2023-03-29T09:40:45;100073.41;;;9.32;100.00
37764;BME280;23602;51.084;7.090;2023-03-29T09:43:14;100064.72;;;9.36;100.00
37764;BME280;23602;51.084;7.090;2023-03-29T09:45:51;100066.59;;;9.36;100.00
37764;BME280;23602;51.084;7.090;2023-03-29T09:48:24;100070.31;;;9.41;100.00
37764;BME280;23602;51.084;7.090;2023-03-29T09:50:51;100061.66;;;9.46;100.00
37764;BME280;23602;51.084;7.090;2023-03-29T09:53:17;100072.81;;;9.63;100.00
37764;BME280;23602;51.084;7.090;2023-03-29T09:55:53;100066.03;;;9.73;100.00
37764;BME280;23602;51.084;7.090;2023-03-29T09:58:21;100067.28;;;9.84;100.00
37764;BME280;23602;51.084;7.090;2023-03-29T10:00:47;100055.28;;;9.93;100.00
37764;BME280;23602;51.084;7.090;2023-03-29T10:03:24;100052.19;;;9.96;100.00
37764;BME280;23602;51.084;7.090;2023-03-29T10:05:58;100045.38;;;9.93;100.00
37764;BME280;23602;51.084;7.090;2023-03-29T10:08:26;100042.47;;;9.95;100.00
37764;BME280;23602;51.084;7.090;2023-03-29T10:10:58;100049.09;;;9.99;100.00
37764;BME280;23602;51.084;7.090;2023-03-29T10:13:27;100056.53;;;9.90;100.00
37764;BME280;23602;51.084;7.090;2023-03-29T10:18:28;100046.22;;;9.94;100.00
37764;BME280;23602;51.084;7.090;2023-03-29T10:21:00;100035.03;;;9.97;100.00
37764;BME280;23602;51.084;7.090;2023-03-29T10:23:33;100036.66;;;10.04;100.00
37764;BME280;23602;51.084;7.090;2023-03-29T10:25:59;100033.81;;;10.19;100.00
37764;BME280;23602;51.084;7.090;2023-03-29T10:28:33;100044.31;;;10.27;100.00
37764;BME280;23602;51.084;7.090;2023-03-29T10:31:01;100040.34;;;10.43;100.00
37764;BME280;23602;51.084;7.090;2023-03-29T10:33:31;100038.69;;;10.48;100.00
37764;BME280;23602;51.084;7.090;2023-03-29T10:36:02;100038.28;;;10.45;100.00
37764;BME280;23602;51.084;7.090;2023-03-29T10:38:28;100035.13;;;10.61;100.00
37764;BME280;23602;51.084;7.090;2023-03-29T10:43:58;100045.69;;;10.62;100.00
37764;BME280;23602;51.084;7.090;2023-03-29T10:46:30;100045.97;;;10.35;100.00
37764;BME280;23602;51.084;7.090;2023-03-29T10:49:17;100040.16;;;10.38;100.00
37764;BME280;23602;51.084;7.090;2023-03-29T10:51:46;100042.81;;;10.51;100.00
37764;BME280;23602;51.084;7.090;2023-03-29T10:54:13;100040.50;;;10.67;100.00
37764;BME280;23602;51.084;7.090;2023-03-29T10:56:57;100039.16;;;10.90;100.00
37764;BME280;23602;51.084;7.090;2023-03-29T10:59:33;100032.63;;;11.10;100.00
37764;BME280;23602;51.084;7.090;2023-03-29T11:07:36;100001.84;;;12.48;100.00
37764;BME280;23602;51.084;7.090;2023-03-29T11:10:29;99993.75;;;12.96;100.00
37764;BME280;23602;51.084;7.090;2023-03-29T11:13:07;99990.81;;;12.97;100.00
37764;BME280;23602;51.084;7.090;2023-03-29T11:26:15;99997.16;;;13.21;100.00
37764;BME280;23602;51.084;7.090;2023-03-29T11:28:54;99993.25;;;13.58;100.00
37764;BME280;23602;51.084;7.090;2023-03-29T11:31:27;99987.84;;;13.58;100.00
37764;BME280;23602;51.084;7.090;2023-03-29T11:36:54;99991.25;;;13.42;100.00
37764;BME280;23602;51.084;7.090;2023-03-29T11:41:57;99989.97;;;13.45;100.00
37764;BME280;23602;51.084;7.090;2023-03-29T11:44:29;99977.44;;;13.20;100.00
37764;BME280;23602;51.084;7.090;2023-03-29T11:47:01;99962.66;;;13.23;100.00
37764;BME280;23602;51.084;7.090;2023-03-29T11:49:49;99962.34;;;13.31;100.00
37764;BME280;23602;51.084;7.090;2023-03-29T11:57:20;99971.03;;;13.33;100.00
37764;BME280;23602;51.084;7.090;2023-03-29T11:59:55;99961.75;;;13.41;100.00
37764;BME280;23602;51.084;7.090;2023-03-29T12:04:54;99957.81;;;13.55;100.00
37764;BME280;23602;51.084;7.090;2023-03-29T12:13:00;99950.66;;;13.07;100.00
37764;BME280;23602;51.084;7.090;2023-03-29T12:15:40;99955.88;;;13.02;100.00
37764;BME280;23602;51.084;7.090;2023-03-29T12:18:26;99951.56;;;13.01;100.00
37764;BME280;23602;51.084;7.090;2023-03-29T12:21:00;99951.50;;;12.90;100.00
37764;BME280;23602;51.084;7.090;2023-03-29T12:26:30;99937.31;;;13.12;100.00
37764;BME280;23602;51.084;7.090;2023-03-29T12:31:58;99932.22;;;13.69;100.00
37764;BME280;23602;51.084;7.090;2023-03-29T12:37:12;99920.34;;;13.58;100.00
37764;BME280;23602;51.084;7.090;2023-03-29T12:39:59;99908.13;;;13.32;100.00
37764;BME280;23602;51.084;7.090;2023-03-29T12:42:42;99915.50;;;13.25;100.00
37764;BME280;23602;51.084;7.090;2023-03-29T12:45:51;99919.16;;;13.19;100.00
37764;BME280;23602;51.084;7.090;2023-03-29T12:48:00;99914.34;;;13.21;100.00
37764;BME280;23602;51.084;7.090;2023-03-29T12:50:35;99905.56;;;13.49;100.00
37764;BME280;23602;51.084;7.090;2023-03-29T12:56:21;99905.06;;;14.10;100.00
37764;BME280;23602;51.084;7.090;2023-03-29T12:59:15;99904.38;;;14.03;100.00
37764;BME280;23602;51.084;7.090;2023-03-29T13:02:01;99903.00;;;14.40;100.00
37764;BME280;23602;51.084;7.090;2023-03-29T13:04:57;99895.38;;;14.66;100.00
37764;BME280;23602;51.084;7.090;2023-03-29T13:07:43;99889.44;;;14.52;100.00
37764;BME280;23602;51.084;7.090;2023-03-29T13:10:40;99893.53;;;14.83;100.00
37764;BME280;23602;51.084;7.090;2023-03-29T13:13:16;99891.59;;;15.11;100.00
37764;BME280;23602;51.084;7.090;2023-03-29T13:15:43;99888.00;;;15.39;100.00
37764;BME280;23602;51.084;7.090;2023-03-29T13:18:27;99879.50;;;15.47;100.00
37764;BME280;23602;51.084;7.090;2023-03-29T13:26:09;99866.31;;;15.94;100.00
37764;BME280;23602;51.084;7.090;2023-03-29T13:37:04;99887.69;;;15.91;100.00
37764;BME280;23602;51.084;7.090;2023-03-29T13:39:35;99891.97;;;15.48;100.00
37764;BME280;23602;51.084;7.090;2023-03-29T13:42:05;99893.59;;;15.33;100.00
37764;BME280;23602;51.084;7.090;2023-03-29T13:44:41;99878.72;;;15.18;100.00
37764;BME280;23602;51.084;7.090;2023-03-29T13:47:12;99864.06;;;15.48;100.00
37764;BME280;23602;51.084;7.090;2023-03-29T13:49:40;99866.44;;;15.61;100.00
37764;BME280;23602;51.084;7.090;2023-03-29T13:52:17;99879.03;;;15.72;100.00
37764;BME280;23602;51.084;7.090;2023-03-29T13:57:49;99855.75;;;15.21;100.00
37764;BME280;23602;51.084;7.090;2023-03-29T14:00:38;99856.91;;;15.25;100.00
37764;BME280;23602;51.084;7.090;2023-03-29T14:03:06;99842.47;;;15.03;100.00
37764;BME280;23602;51.084;7.090;2023-03-29T14:05:36;99834.44;;;14.91;100.00
37764;BME280;23602;51.084;7.090;2023-03-29T14:08:12;99829.09;;;14.96;100.00
37764;BME280;23602;51.084;7.090;2023-03-29T14:10:42;99818.25;;;15.13;100.00
37764;BME280;23602;51.084;7.090;2023-03-29T14:13:14;99808.00;;;15.32;100.00
37764;BME280;23602;51.084;7.090;2023-03-29T14:18:50;99810.44;;;15.33;100.00
37764;BME280;23602;51.084;7.090;2023-03-29T14:24:08;99808.66;;;15.55;100.00
37764;BME280;23602;51.084;7.090;2023-03-29T14:26:36;99802.41;;;15.38;100.00
37764;BME280;23602;51.084;7.090;2023-03-29T14:29:09;99798.69;;;15.23;100.00
37764;BME280;23602;51.084;7.090;2023-03-29T14:31:36;99798.25;;;15.14;100.00
37764;BME280;23602;51.084;7.090;2023-03-29T14:34:04;99787.47;;;14.97;100.00
37764;BME280;23602;51.084;7.090;2023-03-29T14:36:35;99786.94;;;15.00;100.00
37764;BME280;23602;51.084;7.090;2023-03-29T14:42:07;99778.06;;;15.22;100.00
37764;BME280;23602;51.084;7.090;2023-03-29T14:44:34;99788.81;;;15.16;100.00
37764;BME280;23602;51.084;7.090;2023-03-29T14:47:08;99777.50;;;15.19;100.00
37764;BME280;23602;51.084;7.090;2023-03-29T14:49:39;99782.44;;;15.23;100.00
37764;BME280;23602;51.084;7.090;2023-03-29T14:52:07;99781.84;;;15.20;100.00
37764;BME280;23602;51.084;7.090;2023-03-29T14:54:45;99785.22;;;15.28;100.00
37764;BME280;23602;51.084;7.090;2023-03-29T14:57:16;99778.47;;;15.30;100.00
37764;BME280;23602;51.084;7.090;2023-03-29T14:59:43;99790.94;;;15.31;100.00
37764;BME280;23602;51.084;7.090;2023-03-29T15:02:22;99784.69;;;15.31;100.00